Hlavní strana
METAR-TAF:

METAR-TAF

Letiště :

Džerba, Tunisko

zeměpisná šířka: 33-52N, zeměpisná délka: 010-46E, výška: 3 m

Aktuální stav počasí

Zpráva byla vytvořena před 21 minutami, v 20:30 UTC
Jižní vítr 4 kt
Teplota 13°C
Vlhkost vzduchu 62%
Tlak 1022 hPa
Viditelnost: 8000 m
Skoro jasno ve výšce 2300 ft

METAR: DTTJ 252030Z 19004KT 8000 FEW023 13/06 Q1022 NOSIG

Čas: 21:51 (20:51 UTC)

Předpověď počasí

Zpráva byla vytvořena před 3 hodinami a 51 minutami, v 17:00 UTC
Předpověď platná od 25 v 18 UTC do 26 v 18 UTC
vítr z různých směrů 4 kt
Viditelnost: 8000 m
Skoro jasno ve výšce 2300 ft
Pravděpodobnost 30% :
Dočasný
od 25 v 20 UTC do 25 v 24 UTC
Viditelnost: 4000 m
kouřmo

TAF: DTTJ 251700Z 2518/2618 VRB04KT 8000 FEW023 PROB30 TEMPO 2520/2524 4000 BR

Stav a předpovědi počasí z více než 4 000 letišť (zprávy METAR a TAF).

Červené a žluté tečky na mapě představují dostupné meteorologické stanice.

Když kurzor umístíte na tečku, zobrazí se název stanice.

Pak kliknutím zobrazíte stav a předpověď počasí.

Chcete-li změnit mapu, kliknutím na zelené tlačítko se znaménkem +mapu přiblížíte, kliknutím na zelené tlačítko se znaménkem – mapu oddálíte a kliknutím na zelené šipky přejdete na sousední mapy.


METAR-TAF: